createdAt,value
2023-02-27T00:03:21.417Z,1.70
2023-02-27T00:07:26.218Z,1.67
2023-02-27T00:11:29.492Z,1.69
2023-02-27T00:15:33.144Z,1.72
2023-02-27T00:19:36.127Z,1.73
2023-02-27T00:23:38.879Z,1.70
2023-02-27T00:27:42.120Z,1.69
2023-02-27T00:31:45.091Z,1.73
2023-02-27T00:36:02.057Z,1.75
2023-02-27T00:40:05.781Z,1.75
2023-02-27T00:44:08.844Z,1.75
2023-02-27T00:48:11.884Z,1.64
2023-02-27T00:52:14.730Z,1.54
2023-02-27T00:56:17.707Z,1.52
2023-02-27T01:00:20.690Z,1.47
2023-02-27T01:04:23.617Z,1.42
2023-02-27T01:08:26.509Z,1.43
2023-02-27T01:12:29.502Z,1.40
2023-02-27T01:16:32.690Z,1.38
2023-02-27T01:20:35.613Z,1.36
2023-02-27T01:24:38.612Z,1.36
2023-02-27T01:28:41.557Z,1.20
2023-02-27T01:32:44.693Z,1.02
2023-02-27T01:36:47.554Z,1.07
2023-02-27T01:40:50.341Z,1.17
2023-02-27T01:45:11.959Z,1.30
2023-02-27T01:49:21.033Z,1.42
2023-02-27T01:53:26.582Z,1.49
2023-02-27T01:57:29.996Z,1.50
2023-02-27T02:01:34.826Z,1.59
2023-02-27T02:05:38.110Z,1.63
2023-02-27T02:09:45.292Z,1.67
2023-02-27T02:13:53.499Z,1.68
2023-02-27T02:18:11.566Z,1.74
2023-02-27T02:22:32.589Z,1.76
2023-02-27T02:27:07.950Z,1.75
2023-02-27T02:31:10.838Z,1.67
2023-02-27T02:35:46.399Z,1.67
2023-02-27T02:39:59.322Z,1.66
2023-02-27T02:44:20.308Z,1.62
2023-02-27T02:48:37.318Z,1.53
2023-02-27T02:52:54.338Z,1.47
2023-02-27T02:57:08.662Z,1.44
2023-02-27T03:01:27.405Z,1.46
2023-02-27T03:05:42.087Z,1.43
2023-02-27T03:09:57.628Z,1.42
2023-02-27T03:14:08.270Z,1.44
2023-02-27T03:18:20.757Z,1.47
2023-02-27T03:22:31.005Z,1.51
2023-02-27T03:26:39.143Z,1.48
2023-02-27T03:30:51.330Z,1.46
2023-02-27T03:34:54.820Z,1.45
2023-02-27T03:39:05.726Z,1.52
2023-02-27T03:43:21.133Z,1.57
2023-02-27T03:47:24.446Z,1.60
2023-02-27T03:51:28.972Z,1.62
2023-02-27T03:55:39.781Z,1.65
2023-02-27T03:59:43.636Z,1.72
2023-02-27T04:03:53.570Z,1.72
2023-02-27T04:08:25.890Z,1.61
2023-02-27T04:12:37.824Z,1.53
2023-02-27T04:17:23.318Z,1.48
2023-02-27T04:21:54.182Z,1.53
2023-02-27T04:26:09.203Z,1.58
2023-02-27T04:30:45.074Z,1.51
2023-02-27T04:34:59.905Z,1.47
2023-02-27T04:39:22.115Z,1.43
2023-02-27T04:43:27.914Z,1.49
2023-02-27T04:47:38.631Z,1.49
2023-02-27T04:51:52.011Z,1.46
2023-02-27T04:56:01.548Z,1.31
2023-02-27T05:00:09.280Z,1.23
2023-02-27T05:04:16.041Z,1.18
2023-02-27T05:08:24.340Z,1.12
2023-02-27T05:12:36.334Z,1.09
2023-02-27T05:16:46.670Z,1.16
2023-02-27T05:21:06.621Z,1.19
2023-02-27T05:25:16.113Z,1.19
2023-02-27T05:29:31.512Z,1.14
2023-02-27T05:34:05.869Z,1.09
2023-02-27T05:38:08.796Z,1.07
2023-02-27T05:42:18.344Z,1.07
2023-02-27T05:46:26.928Z,1.00
2023-02-27T05:50:33.967Z,0.99
2023-02-27T05:54:52.066Z,0.96
2023-02-27T05:59:01.080Z,1.01
2023-02-27T06:03:04.260Z,1.08
2023-02-27T06:07:08.643Z,1.11
2023-02-27T06:11:13.323Z,1.11
2023-02-27T06:15:17.556Z,1.08
2023-02-27T06:19:20.424Z,1.15
2023-02-27T06:23:23.255Z,1.16
2023-02-27T06:27:29.232Z,1.13
2023-02-27T06:31:32.091Z,1.10
2023-02-27T06:35:35.124Z,1.11
2023-02-27T06:39:45.224Z,1.15
2023-02-27T06:43:55.778Z,1.20
2023-02-27T06:47:58.586Z,1.26
2023-02-27T06:52:01.413Z,1.22
2023-02-27T06:56:04.866Z,1.27
2023-02-27T07:00:08.388Z,1.24
2023-02-27T07:04:14.250Z,1.18
2023-02-27T07:08:17.765Z,1.19
2023-02-27T07:12:20.745Z,1.30
2023-02-27T07:16:23.950Z,1.43
2023-02-27T07:20:27.487Z,1.47
2023-02-27T07:24:30.372Z,1.54
2023-02-27T07:28:33.464Z,1.66
2023-02-27T07:32:36.376Z,1.79
2023-02-27T07:36:39.703Z,1.81
2023-02-27T07:40:42.636Z,1.94
2023-02-27T07:44:45.703Z,2.04
2023-02-27T07:48:48.636Z,2.19
2023-02-27T07:52:52.480Z,2.36
2023-02-27T07:56:55.892Z,2.64
2023-02-27T08:01:03.655Z,2.84
2023-02-27T08:05:10.785Z,3.02
2023-02-27T08:09:47.712Z,3.03
2023-02-27T08:14:06.146Z,3.00
2023-02-27T08:18:11.112Z,3.05
2023-02-27T08:22:14.678Z,2.82
2023-02-27T08:26:18.958Z,2.76
2023-02-27T08:30:23.073Z,3.00
2023-02-27T08:34:26.546Z,3.17
2023-02-27T08:38:30.328Z,3.35
2023-02-27T08:42:34.254Z,3.41
2023-02-27T08:46:37.862Z,3.25
2023-02-27T08:50:40.980Z,3.23
2023-02-27T08:54:44.195Z,3.42
2023-02-27T08:58:48.952Z,3.48
2023-02-27T09:02:52.059Z,3.47
2023-02-27T09:06:55.299Z,3.58
2023-02-27T09:10:58.674Z,3.75
2023-02-27T09:15:02.344Z,3.80
2023-02-27T09:19:05.789Z,3.82
2023-02-27T09:23:09.573Z,3.87
2023-02-27T09:27:14.231Z,3.92
2023-02-27T09:31:18.403Z,4.01
2023-02-27T09:35:21.714Z,4.08
2023-02-27T09:39:25.127Z,4.01
2023-02-27T09:43:49.752Z,4.05
2023-02-27T09:48:25.438Z,4.20
2023-02-27T09:52:31.342Z,4.21
2023-02-27T09:56:49.417Z,4.33
2023-02-27T10:01:05.678Z,4.40
2023-02-27T10:05:14.658Z,4.45
2023-02-27T10:09:42.987Z,4.50
2023-02-27T10:14:02.228Z,4.60
2023-02-27T10:18:25.386Z,4.74
2023-02-27T10:22:43.548Z,4.86
2023-02-27T10:26:46.724Z,4.84
2023-02-27T10:30:53.288Z,4.79
2023-02-27T10:35:06.672Z,4.77
2023-02-27T10:39:14.459Z,4.81
2023-02-27T10:43:19.681Z,4.81
2023-02-27T10:47:24.963Z,4.87
2023-02-27T10:51:36.381Z,4.96
2023-02-27T10:55:48.717Z,5.09
2023-02-27T10:59:55.937Z,5.16
2023-02-27T11:04:00.389Z,5.18
2023-02-27T11:08:30.966Z,5.10
2023-02-27T11:12:35.633Z,4.99
2023-02-27T11:16:54.896Z,5.00
2023-02-27T11:21:12.456Z,5.04
2023-02-27T11:25:24.592Z,4.98
2023-02-27T11:29:28.972Z,4.74
2023-02-27T11:33:38.433Z,4.50
2023-02-27T11:37:42.130Z,4.31
2023-02-27T11:41:45.872Z,4.21
2023-02-27T11:46:13.432Z,4.17
2023-02-27T11:50:31.658Z,4.08
2023-02-27T11:54:51.266Z,4.01
2023-02-27T11:59:12.728Z,4.04
2023-02-27T12:03:28.031Z,4.02
2023-02-27T12:07:49.960Z,4.06
2023-02-27T12:11:54.980Z,4.11
2023-02-27T12:16:08.195Z,4.16
2023-02-27T12:20:30.766Z,4.20
2023-02-27T12:24:47.716Z,4.21
2023-02-27T12:28:58.406Z,4.13
2023-02-27T12:33:36.583Z,4.04
2023-02-27T12:37:40.210Z,3.95
2023-02-27T12:41:51.897Z,3.94
2023-02-27T12:46:05.661Z,3.99
2023-02-27T12:50:17.252Z,4.02
2023-02-27T12:54:20.477Z,4.10
2023-02-27T12:58:26.336Z,4.15
2023-02-27T13:02:35.311Z,4.13
2023-02-27T13:07:04.420Z,4.06
2023-02-27T13:11:30.953Z,3.89
2023-02-27T13:15:45.943Z,3.79
2023-02-27T13:20:12.450Z,3.78
2023-02-27T13:24:23.918Z,3.77
2023-02-27T13:28:29.723Z,3.72
2023-02-27T13:32:45.640Z,3.83
2023-02-27T13:36:58.053Z,3.90
2023-02-27T13:41:25.482Z,3.94
2023-02-27T13:45:54.723Z,3.96
2023-02-27T13:50:03.288Z,4.00
2023-02-27T13:54:15.331Z,3.93
2023-02-27T13:58:24.730Z,3.89
2023-02-27T14:02:59.902Z,3.92
2023-02-27T14:07:11.371Z,3.97
2023-02-27T14:11:18.274Z,4.03
2023-02-27T14:15:24.422Z,4.10
2023-02-27T14:20:07.592Z,4.16
2023-02-27T14:24:19.638Z,4.23
2023-02-27T14:28:30.841Z,4.21
2023-02-27T14:32:37.228Z,4.16
2023-02-27T14:36:52.446Z,4.11
2023-02-27T14:41:34.483Z,4.07
2023-02-27T14:45:37.865Z,4.06
2023-02-27T14:54:52.786Z,4.09
2023-02-27T14:59:04.364Z,4.08
2023-02-27T15:03:26.484Z,4.08
2023-02-27T15:07:33.469Z,4.06
2023-02-27T15:11:43.230Z,4.01
2023-02-27T15:15:48.933Z,3.98
2023-02-27T15:19:56.989Z,3.93
2023-02-27T15:24:04.372Z,3.89
2023-02-27T15:28:22.573Z,3.84
2023-02-27T15:32:29.949Z,3.85
2023-02-27T15:36:35.786Z,3.85
2023-02-27T15:40:39.336Z,3.81
2023-02-27T15:44:45.749Z,3.82
2023-02-27T15:48:51.542Z,3.88
2023-02-27T15:53:07.185Z,3.95
2023-02-27T15:57:10.619Z,3.97
2023-02-27T16:01:19.232Z,3.96
2023-02-27T16:05:30.808Z,3.95
2023-02-27T16:09:37.145Z,3.93
2023-02-27T16:13:41.386Z,3.89
2023-02-27T16:18:22.557Z,3.81
2023-02-27T16:22:26.402Z,3.73
2023-02-27T16:26:32.419Z,3.69
2023-02-27T16:30:35.563Z,3.68
2023-02-27T16:34:45.442Z,3.69
2023-02-27T16:38:50.856Z,3.66
2023-02-27T16:42:53.946Z,3.63
2023-02-27T16:46:58.933Z,3.60
2023-02-27T16:51:02.237Z,3.59
2023-02-27T16:55:05.453Z,3.52
2023-02-27T16:59:28.346Z,3.48
2023-02-27T17:03:31.444Z,3.46
2023-02-27T17:07:34.333Z,3.46
2023-02-27T17:11:37.195Z,3.48
2023-02-27T17:15:39.955Z,3.47
2023-02-27T17:19:42.792Z,3.41
2023-02-27T17:23:46.798Z,3.36
2023-02-27T17:27:50.205Z,3.30
2023-02-27T17:31:53.148Z,3.25
2023-02-27T17:36:07.281Z,3.28
2023-02-27T17:40:12.280Z,3.28
2023-02-27T17:44:15.241Z,3.30
2023-02-27T17:48:18.391Z,3.30
2023-02-27T17:52:21.224Z,3.27
2023-02-27T17:56:24.331Z,3.25
2023-02-27T18:00:27.307Z,3.29
2023-02-27T18:04:30.251Z,3.33
2023-02-27T18:08:34.066Z,3.39
2023-02-27T18:12:37.179Z,3.44
2023-02-27T18:16:40.093Z,3.46
2023-02-27T18:20:43.177Z,3.45
2023-02-27T18:24:45.979Z,3.42
2023-02-27T18:28:49.199Z,3.36
2023-02-27T18:32:56.393Z,3.33
2023-02-27T18:36:59.285Z,3.30
2023-02-27T18:41:03.458Z,3.27
2023-02-27T18:45:06.745Z,3.27
2023-02-27T18:49:09.744Z,3.26
2023-02-27T18:53:12.571Z,3.18
2023-02-27T18:57:15.760Z,3.07
2023-02-27T19:01:29.870Z,2.92
2023-02-27T19:05:33.125Z,2.83
2023-02-27T19:09:35.900Z,2.75
2023-02-27T19:13:39.023Z,2.70
2023-02-27T19:17:41.809Z,2.63
2023-02-27T19:21:45.091Z,2.58
2023-02-27T19:25:49.096Z,2.51
2023-02-27T19:29:51.975Z,2.46
2023-02-27T19:33:54.954Z,2.41
2023-02-27T19:37:58.255Z,2.37
2023-02-27T19:42:01.210Z,2.37
2023-02-27T19:46:12.521Z,2.38
2023-02-27T19:50:16.322Z,2.39
2023-02-27T19:54:19.810Z,2.39
2023-02-27T19:58:22.856Z,2.38
2023-02-27T20:02:26.450Z,2.35
2023-02-27T20:06:33.061Z,2.33
2023-02-27T20:10:35.916Z,2.31
2023-02-27T20:14:38.766Z,2.31
2023-02-27T20:18:43.454Z,2.32
2023-02-27T20:22:46.462Z,2.31
2023-02-27T20:26:53.455Z,2.30
2023-02-27T20:30:56.319Z,2.30
2023-02-27T20:34:59.247Z,2.27
2023-02-27T20:39:02.803Z,2.25
2023-02-27T20:43:05.847Z,2.25
2023-02-27T20:47:09.208Z,2.27
2023-02-27T20:51:24.337Z,2.32
2023-02-27T20:55:27.133Z,2.36
2023-02-27T20:59:29.963Z,2.39
2023-02-27T21:03:38.447Z,2.41
2023-02-27T21:07:42.033Z,2.46
2023-02-27T21:11:45.105Z,2.46
2023-02-27T21:15:48.042Z,2.49
2023-02-27T21:19:51.105Z,2.52
2023-02-27T21:23:54.509Z,2.60
2023-02-27T21:28:02.256Z,2.67
2023-02-27T21:32:05.671Z,2.78
2023-02-27T21:36:09.595Z,2.81
2023-02-27T21:40:12.852Z,2.83
2023-02-27T21:44:18.921Z,2.84
2023-02-27T21:48:21.733Z,2.83
2023-02-27T21:52:24.621Z,2.72
2023-02-27T21:56:29.746Z,2.68
2023-02-27T22:00:33.665Z,2.70
2023-02-27T22:04:36.659Z,2.77
2023-02-27T22:08:40.263Z,2.81
2023-02-27T22:12:43.083Z,2.83
2023-02-27T22:16:45.970Z,2.82
2023-02-27T22:20:48.861Z,2.66
2023-02-27T22:24:51.781Z,2.46
2023-02-27T22:28:58.629Z,2.38
2023-02-27T22:33:01.505Z,2.37
2023-02-27T22:37:04.449Z,2.38
2023-02-27T22:41:12.866Z,2.44
2023-02-27T22:45:15.753Z,2.53
2023-02-27T22:49:21.594Z,2.53
2023-02-27T22:53:24.675Z,2.48
2023-02-27T22:57:27.560Z,2.51
2023-02-27T23:01:32.736Z,2.52
2023-02-27T23:05:35.733Z,2.48
2023-02-27T23:09:38.550Z,2.48
2023-02-27T23:13:41.686Z,2.47
2023-02-27T23:17:56.616Z,2.37
2023-02-27T23:22:01.019Z,2.36
2023-02-27T23:26:05.714Z,2.32
2023-02-27T23:30:10.570Z,2.27
2023-02-27T23:34:13.385Z,2.30
2023-02-27T23:38:16.272Z,2.23
2023-02-27T23:42:19.265Z,2.20
2023-02-27T23:46:22.054Z,2.20
2023-02-27T23:50:28.130Z,2.25
2023-02-27T23:54:30.984Z,2.29
2023-02-27T23:58:33.868Z,2.37
